createdAt,value
2023-01-07T00:08:45.022Z,5.50
2023-01-07T00:23:47.709Z,4.53
2023-01-07T00:38:58.893Z,5.25
2023-01-07T00:54:00.901Z,4.88
2023-01-07T01:09:02.967Z,4.28
2023-01-07T01:24:05.062Z,4.57
2023-01-07T01:39:07.276Z,5.20
2023-01-07T01:54:12.317Z,5.30
2023-01-07T02:09:14.741Z,4.00
2023-01-07T02:24:47.190Z,4.00
2023-01-07T02:40:15.057Z,4.72
2023-01-07T02:55:29.307Z,5.10
2023-01-07T03:10:40.681Z,4.70
2023-01-07T03:25:46.678Z,8.27
2023-01-07T03:40:49.068Z,7.82
2023-01-07T03:55:51.059Z,26.20
2023-01-07T04:10:53.014Z,15.75
2023-01-07T04:25:54.981Z,9.00
2023-01-07T04:40:57.011Z,6.72
2023-01-07T04:55:59.021Z,8.05
2023-01-07T05:11:02.183Z,9.15
2023-01-07T05:26:04.436Z,8.07
2023-01-07T05:41:06.452Z,9.55
2023-01-07T05:56:08.405Z,9.27
2023-01-07T06:11:10.368Z,10.98
2023-01-07T06:26:12.368Z,10.50
2023-01-07T06:41:14.346Z,14.32
2023-01-07T06:56:16.373Z,13.50
2023-01-07T07:11:18.577Z,10.40
2023-01-07T07:26:20.586Z,10.70
2023-01-07T07:41:23.900Z,10.90
2023-01-07T07:56:25.969Z,9.25
2023-01-07T08:11:28.036Z,8.45
2023-01-07T08:26:30.048Z,8.80
2023-01-07T08:41:32.019Z,11.57
2023-01-07T08:56:34.035Z,8.68
2023-01-07T09:11:36.166Z,10.98
2023-01-07T09:26:38.257Z,11.15
2023-01-07T09:42:04.400Z,10.30
2023-01-07T09:57:06.997Z,9.00
2023-01-07T10:12:29.974Z,9.77
2023-01-07T10:27:37.759Z,10.75
2023-01-07T10:43:04.004Z,10.88
2023-01-07T10:58:10.616Z,9.35
2023-01-07T11:13:22.398Z,10.00
2023-01-07T11:28:28.672Z,9.60
2023-01-07T11:43:35.980Z,7.63
2023-01-07T11:58:44.141Z,7.43
2023-01-07T12:13:53.185Z,7.43
2023-01-07T12:44:21.322Z,7.47
2023-01-07T12:59:45.836Z,8.27
2023-01-07T13:14:56.267Z,7.85
2023-01-07T13:30:03.748Z,6.83
2023-01-07T13:45:17.307Z,5.18
2023-01-07T14:01:00.496Z,6.45
2023-01-07T14:16:15.802Z,6.80
2023-01-07T14:31:23.541Z,8.68
2023-01-07T14:46:25.701Z,9.23
2023-01-07T15:01:40.113Z,9.38
2023-01-07T15:16:43.977Z,11.02
2023-01-07T15:32:11.765Z,13.13
2023-01-07T15:47:32.433Z,14.98
2023-01-07T16:02:42.769Z,15.57
2023-01-07T16:18:15.328Z,18.55
2023-01-07T16:33:21.699Z,24.30
2023-01-07T16:48:24.027Z,20.33
2023-01-07T17:03:26.539Z,24.48
2023-01-07T17:18:29.478Z,22.40
2023-01-07T17:33:31.579Z,28.60
2023-01-07T17:48:35.433Z,31.17
2023-01-07T18:03:37.747Z,35.15
2023-01-07T18:18:39.924Z,31.15
2023-01-07T18:33:42.400Z,32.63
2023-01-07T18:48:45.849Z,32.33
2023-01-07T19:03:48.293Z,34.90
2023-01-07T19:18:50.673Z,34.25
2023-01-07T19:33:53.147Z,33.65
2023-01-07T19:48:55.110Z,32.72
2023-01-07T20:03:59.071Z,37.05
2023-01-07T20:19:01.009Z,36.25
2023-01-07T20:34:03.016Z,34.25
2023-01-07T20:49:04.974Z,38.40
2023-01-07T21:04:06.954Z,40.20
2023-01-07T21:19:09.197Z,45.33
2023-01-07T21:34:11.485Z,48.75
2023-01-07T21:49:13.594Z,49.50
2023-01-07T22:04:15.592Z,45.30
2023-01-07T22:19:17.822Z,40.55
2023-01-07T22:34:20.472Z,43.92
2023-01-07T22:49:27.010Z,40.10
2023-01-07T23:04:29.058Z,38.10
2023-01-07T23:19:32.240Z,36.72
2023-01-07T23:34:34.716Z,32.80
2023-01-07T23:49:36.872Z,33.55
